sensor_id;sensor_type;location;lat;lon;timestamp;pressure;altitude;pressure_sealevel;temperature
70533;BMP180;58088;51.186;17.130;2023-02-28T00:01:25;101667.60;;;3.70
70533;BMP180;58088;51.186;17.130;2023-02-28T00:03:52;101667.20;;;3.70
70533;BMP180;58088;51.186;17.130;2023-02-28T00:06:18;101666.60;;;3.70
70533;BMP180;58088;51.186;17.130;2023-02-28T00:08:45;101665.80;;;3.70
70533;BMP180;58088;51.186;17.130;2023-02-28T00:11:14;101664.20;;;3.76
70533;BMP180;58088;51.186;17.130;2023-02-28T00:13:44;101663.60;;;3.80
70533;BMP180;58088;51.186;17.130;2023-02-28T00:16:20;101661.20;;;3.80
70533;BMP180;58088;51.186;17.130;2023-02-28T00:18:48;101667.60;;;3.80
70533;BMP180;58088;51.186;17.130;2023-02-28T00:21:15;101671.60;;;3.70
70533;BMP180;58088;51.186;17.130;2023-02-28T00:23:42;101668.00;;;3.70
70533;BMP180;58088;51.186;17.130;2023-02-28T00:26:08;101670.00;;;3.70
70533;BMP180;58088;51.186;17.130;2023-02-28T00:28:34;101662.40;;;3.72
70533;BMP180;58088;51.186;17.130;2023-02-28T00:31:00;101667.40;;;3.78
70533;BMP180;58088;51.186;17.130;2023-02-28T00:33:28;101671.20;;;3.80
70533;BMP180;58088;51.186;17.130;2023-02-28T00:36:10;101668.00;;;3.80
70533;BMP180;58088;51.186;17.130;2023-02-28T00:38:39;101667.40;;;3.80
70533;BMP180;58088;51.186;17.130;2023-02-28T00:41:07;101666.40;;;3.80
70533;BMP180;58088;51.186;17.130;2023-02-28T00:43:36;101661.20;;;3.80
70533;BMP180;58088;51.186;17.130;2023-02-28T00:46:03;101660.60;;;3.80
70533;BMP180;58088;51.186;17.130;2023-02-28T00:48:30;101657.80;;;3.80
70533;BMP180;58088;51.186;17.130;2023-02-28T00:50:57;101657.80;;;3.80
70533;BMP180;58088;51.186;17.130;2023-02-28T00:53:25;101660.00;;;3.72
70533;BMP180;58088;51.186;17.130;2023-02-28T00:55:51;101657.20;;;3.70
70533;BMP180;58088;51.186;17.130;2023-02-28T00:58:18;101653.00;;;3.70
70533;BMP180;58088;51.186;17.130;2023-02-28T01:00:45;101652.40;;;3.70
70533;BMP180;58088;51.186;17.130;2023-02-28T01:03:19;101659.40;;;3.72
70533;BMP180;58088;51.186;17.130;2023-02-28T01:05:46;101663.20;;;3.80
70533;BMP180;58088;51.186;17.130;2023-02-28T01:08:13;101658.80;;;3.80
70533;BMP180;58088;51.186;17.130;2023-02-28T01:10:40;101656.60;;;3.80
70533;BMP180;58088;51.186;17.130;2023-02-28T01:13:08;101654.20;;;3.80
70533;BMP180;58088;51.186;17.130;2023-02-28T01:15:37;101653.80;;;3.80
70533;BMP180;58088;51.186;17.130;2023-02-28T01:18:05;101657.20;;;3.80
70533;BMP180;58088;51.186;17.130;2023-02-28T01:20:33;101652.20;;;3.80
70533;BMP180;58088;51.186;17.130;2023-02-28T01:23:03;101653.80;;;3.86
70533;BMP180;58088;51.186;17.130;2023-02-28T01:25:29;101657.20;;;3.86
70533;BMP180;58088;51.186;17.130;2023-02-28T01:27:56;101655.40;;;3.80
70533;BMP180;58088;51.186;17.130;2023-02-28T01:30:22;101645.40;;;3.80
70533;BMP180;58088;51.186;17.130;2023-02-28T01:32:48;101648.00;;;3.80
70533;BMP180;58088;51.186;17.130;2023-02-28T01:35:18;101653.80;;;3.78
70533;BMP180;58088;51.186;17.130;2023-02-28T01:37:44;101654.60;;;3.70
70533;BMP180;58088;51.186;17.130;2023-02-28T01:40:12;101657.20;;;3.72
70533;BMP180;58088;51.186;17.130;2023-02-28T01:42:39;101651.20;;;3.70
70533;BMP180;58088;51.186;17.130;2023-02-28T01:45:25;101649.00;;;3.72
70533;BMP180;58088;51.186;17.130;2023-02-28T01:47:58;101656.80;;;3.76
70533;BMP180;58088;51.186;17.130;2023-02-28T01:50:30;101651.40;;;3.80
70533;BMP180;58088;51.186;17.130;2023-02-28T01:53:03;101645.60;;;3.74
70533;BMP180;58088;51.186;17.130;2023-02-28T01:55:32;101646.20;;;3.72
70533;BMP180;58088;51.186;17.130;2023-02-28T01:58:02;101646.60;;;3.70
70533;BMP180;58088;51.186;17.130;2023-02-28T02:00:32;101651.60;;;3.66
70533;BMP180;58088;51.186;17.130;2023-02-28T02:03:06;101646.00;;;3.60
70533;BMP180;58088;51.186;17.130;2023-02-28T02:05:38;101647.60;;;3.60
70533;BMP180;58088;51.186;17.130;2023-02-28T02:08:13;101648.20;;;3.60
70533;BMP180;58088;51.186;17.130;2023-02-28T02:10:57;101647.80;;;3.60
70533;BMP180;58088;51.186;17.130;2023-02-28T02:13:56;101642.40;;;3.60
70533;BMP180;58088;51.186;17.130;2023-02-28T02:29:04;101645.00;;;3.70
70533;BMP180;58088;51.186;17.130;2023-02-28T02:34:52;101648.60;;;3.70
70533;BMP180;58088;51.186;17.130;2023-02-28T02:37:45;101645.60;;;3.70
70533;BMP180;58088;51.186;17.130;2023-02-28T02:40:22;101646.80;;;3.70
70533;BMP180;58088;51.186;17.130;2023-02-28T02:43:35;101641.60;;;3.70
70533;BMP180;58088;51.186;17.130;2023-02-28T02:46:12;101638.40;;;3.70
70533;BMP180;58088;51.186;17.130;2023-02-28T02:48:42;101641.00;;;3.70
70533;BMP180;58088;51.186;17.130;2023-02-28T02:51:16;101639.40;;;3.70
70533;BMP180;58088;51.186;17.130;2023-02-28T02:53:57;101632.80;;;3.70
70533;BMP180;58088;51.186;17.130;2023-02-28T02:56:30;101632.60;;;3.70
70533;BMP180;58088;51.186;17.130;2023-02-28T02:59:03;101636.60;;;3.70
70533;BMP180;58088;51.186;17.130;2023-02-28T03:01:32;101644.80;;;3.70
70533;BMP180;58088;51.186;17.130;2023-02-28T03:04:07;101643.20;;;3.70
70533;BMP180;58088;51.186;17.130;2023-02-28T03:06:34;101639.80;;;3.70
70533;BMP180;58088;51.186;17.130;2023-02-28T03:09:02;101642.20;;;3.70
70533;BMP180;58088;51.186;17.130;2023-02-28T03:11:29;101634.40;;;3.70
70533;BMP180;58088;51.186;17.130;2023-02-28T03:22:19;101643.20;;;3.60
70533;BMP180;58088;51.186;17.130;2023-02-28T03:31:03;101647.20;;;3.50
70533;BMP180;58088;51.186;17.130;2023-02-28T03:33:43;101646.80;;;3.52
70533;BMP180;58088;51.186;17.130;2023-02-28T03:36:16;101650.80;;;3.50
70533;BMP180;58088;51.186;17.130;2023-02-28T03:38:48;101651.40;;;3.50
70533;BMP180;58088;51.186;17.130;2023-02-28T03:41:40;101657.80;;;3.42
70533;BMP180;58088;51.186;17.130;2023-02-28T03:44:23;101656.60;;;3.50
70533;BMP180;58088;51.186;17.130;2023-02-28T03:47:01;101655.40;;;3.50
70533;BMP180;58088;51.186;17.130;2023-02-28T03:49:42;101655.20;;;3.50
70533;BMP180;58088;51.186;17.130;2023-02-28T03:52:09;101661.60;;;3.50
70533;BMP180;58088;51.186;17.130;2023-02-28T03:54:45;101657.60;;;3.50
70533;BMP180;58088;51.186;17.130;2023-02-28T04:00:23;101662.20;;;3.50
70533;BMP180;58088;51.186;17.130;2023-02-28T04:02:55;101664.80;;;3.50
70533;BMP180;58088;51.186;17.130;2023-02-28T04:05:22;101665.20;;;3.50
70533;BMP180;58088;51.186;17.130;2023-02-28T04:07:49;101661.00;;;3.50
70533;BMP180;58088;51.186;17.130;2023-02-28T04:10:16;101664.00;;;3.48
70533;BMP180;58088;51.186;17.130;2023-02-28T04:12:42;101670.80;;;3.40
70533;BMP180;58088;51.186;17.130;2023-02-28T04:15:08;101663.40;;;3.38
70533;BMP180;58088;51.186;17.130;2023-02-28T04:17:36;101664.00;;;3.30
70533;BMP180;58088;51.186;17.130;2023-02-28T04:20:04;101665.40;;;3.30
70533;BMP180;58088;51.186;17.130;2023-02-28T04:22:35;101664.60;;;3.34
70533;BMP180;58088;51.186;17.130;2023-02-28T04:25:03;101668.40;;;3.38
70533;BMP180;58088;51.186;17.130;2023-02-28T04:27:29;101670.00;;;3.40
70533;BMP180;58088;51.186;17.130;2023-02-28T04:29:55;101669.60;;;3.40
70533;BMP180;58088;51.186;17.130;2023-02-28T04:32:21;101670.00;;;3.40
70533;BMP180;58088;51.186;17.130;2023-02-28T04:34:48;101674.40;;;3.40
70533;BMP180;58088;51.186;17.130;2023-02-28T04:37:14;101681.20;;;3.40
70533;BMP180;58088;51.186;17.130;2023-02-28T04:39:42;101679.20;;;3.30
70533;BMP180;58088;51.186;17.130;2023-02-28T04:42:09;101679.20;;;3.20
70533;BMP180;58088;51.186;17.130;2023-02-28T04:44:36;101680.80;;;3.20
70533;BMP180;58088;51.186;17.130;2023-02-28T04:47:02;101679.20;;;3.20
70533;BMP180;58088;51.186;17.130;2023-02-28T04:49:28;101679.60;;;3.20
70533;BMP180;58088;51.186;17.130;2023-02-28T04:51:55;101675.80;;;3.22
70533;BMP180;58088;51.186;17.130;2023-02-28T04:54:21;101681.20;;;3.22
70533;BMP180;58088;51.186;17.130;2023-02-28T04:56:47;101682.40;;;3.30
70533;BMP180;58088;51.186;17.130;2023-02-28T04:59:15;101677.00;;;3.20
70533;BMP180;58088;51.186;17.130;2023-02-28T05:01:47;101686.00;;;3.20
70533;BMP180;58088;51.186;17.130;2023-02-28T05:04:15;101682.80;;;3.20
70533;BMP180;58088;51.186;17.130;2023-02-28T05:06:41;101680.80;;;3.20
70533;BMP180;58088;51.186;17.130;2023-02-28T05:09:07;101677.20;;;3.20
70533;BMP180;58088;51.186;17.130;2023-02-28T05:11:34;101682.60;;;3.20
70533;BMP180;58088;51.186;17.130;2023-02-28T05:14:08;101678.20;;;3.20
70533;BMP180;58088;51.186;17.130;2023-02-28T05:16:35;101682.40;;;3.22
70533;BMP180;58088;51.186;17.130;2023-02-28T05:19:02;101679.60;;;3.30
70533;BMP180;58088;51.186;17.130;2023-02-28T05:21:38;101688.40;;;3.30
70533;BMP180;58088;51.186;17.130;2023-02-28T05:24:09;101686.20;;;3.20
70533;BMP180;58088;51.186;17.130;2023-02-28T05:26:39;101691.60;;;3.26
70533;BMP180;58088;51.186;17.130;2023-02-28T05:29:06;101687.80;;;3.30
70533;BMP180;58088;51.186;17.130;2023-02-28T05:31:33;101690.20;;;3.32
70533;BMP180;58088;51.186;17.130;2023-02-28T05:34:00;101696.40;;;3.38
70533;BMP180;58088;51.186;17.130;2023-02-28T05:36:26;101698.40;;;3.40
70533;BMP180;58088;51.186;17.130;2023-02-28T05:38:53;101702.00;;;3.40
70533;BMP180;58088;51.186;17.130;2023-02-28T05:41:20;101704.00;;;3.40
70533;BMP180;58088;51.186;17.130;2023-02-28T05:43:47;101698.20;;;3.40
70533;BMP180;58088;51.186;17.130;2023-02-28T05:46:15;101709.00;;;3.40
70533;BMP180;58088;51.186;17.130;2023-02-28T05:48:46;101713.60;;;3.40
70533;BMP180;58088;51.186;17.130;2023-02-28T05:51:12;101717.80;;;3.40
70533;BMP180;58088;51.186;17.130;2023-02-28T05:53:39;101728.40;;;3.50
70533;BMP180;58088;51.186;17.130;2023-02-28T05:56:05;101722.20;;;3.50
70533;BMP180;58088;51.186;17.130;2023-02-28T05:58:31;101723.60;;;3.50
70533;BMP180;58088;51.186;17.130;2023-02-28T06:00:59;101720.80;;;3.46
70533;BMP180;58088;51.186;17.130;2023-02-28T06:03:27;101722.40;;;3.50
70533;BMP180;58088;51.186;17.130;2023-02-28T06:05:53;101726.20;;;3.56
70533;BMP180;58088;51.186;17.130;2023-02-28T06:08:19;101730.00;;;3.60
70533;BMP180;58088;51.186;17.130;2023-02-28T06:10:46;101727.80;;;3.70
70533;BMP180;58088;51.186;17.130;2023-02-28T06:13:12;101728.00;;;3.70
70533;BMP180;58088;51.186;17.130;2023-02-28T06:15:39;101727.20;;;3.90
70533;BMP180;58088;51.186;17.130;2023-02-28T06:18:05;101736.00;;;4.20
70533;BMP180;58088;51.186;17.130;2023-02-28T06:20:31;101733.80;;;4.50
70533;BMP180;58088;51.186;17.130;2023-02-28T06:22:58;101733.00;;;4.76
70533;BMP180;58088;51.186;17.130;2023-02-28T06:25:26;101738.60;;;5.00
70533;BMP180;58088;51.186;17.130;2023-02-28T06:27:54;101738.00;;;5.36
70533;BMP180;58088;51.186;17.130;2023-02-28T06:30:20;101744.60;;;5.66
70533;BMP180;58088;51.186;17.130;2023-02-28T06:32:53;101738.20;;;5.98
70533;BMP180;58088;51.186;17.130;2023-02-28T06:35:20;101744.00;;;6.30
70533;BMP180;58088;51.186;17.130;2023-02-28T06:37:46;101749.20;;;6.50
70533;BMP180;58088;51.186;17.130;2023-02-28T06:40:13;101748.80;;;6.60
70533;BMP180;58088;51.186;17.130;2023-02-28T06:42:40;101749.00;;;6.70
70533;BMP180;58088;51.186;17.130;2023-02-28T06:45:07;101750.80;;;6.88
70533;BMP180;58088;51.186;17.130;2023-02-28T06:47:37;101758.00;;;7.00
70533;BMP180;58088;51.186;17.130;2023-02-28T06:50:05;101749.00;;;7.10
70533;BMP180;58088;51.186;17.130;2023-02-28T06:52:32;101752.00;;;7.40
70533;BMP180;58088;51.186;17.130;2023-02-28T06:54:58;101756.40;;;7.62
70533;BMP180;58088;51.186;17.130;2023-02-28T06:57:29;101761.00;;;7.92
70533;BMP180;58088;51.186;17.130;2023-02-28T07:00:06;101751.80;;;8.20
70533;BMP180;58088;51.186;17.130;2023-02-28T07:02:37;101754.40;;;8.40
70533;BMP180;58088;51.186;17.130;2023-02-28T07:05:05;101759.60;;;8.60
70533;BMP180;58088;51.186;17.130;2023-02-28T07:07:31;101756.00;;;8.84
70533;BMP180;58088;51.186;17.130;2023-02-28T07:09:58;101756.60;;;8.86
70533;BMP180;58088;51.186;17.130;2023-02-28T07:12:24;101760.00;;;8.80
70533;BMP180;58088;51.186;17.130;2023-02-28T07:14:50;101765.80;;;9.02
70533;BMP180;58088;51.186;17.130;2023-02-28T07:17:16;101758.60;;;9.20
70533;BMP180;58088;51.186;17.130;2023-02-28T07:19:43;101766.80;;;9.30
70533;BMP180;58088;51.186;17.130;2023-02-28T07:22:11;101767.20;;;9.44
70533;BMP180;58088;51.186;17.130;2023-02-28T07:24:38;101757.00;;;9.50
70533;BMP180;58088;51.186;17.130;2023-02-28T07:27:04;101769.60;;;9.60
70533;BMP180;58088;51.186;17.130;2023-02-28T07:29:30;101768.20;;;9.70
70533;BMP180;58088;51.186;17.130;2023-02-28T07:31:57;101770.20;;;9.80
70533;BMP180;58088;51.186;17.130;2023-02-28T07:34:23;101766.20;;;9.80
70533;BMP180;58088;51.186;17.130;2023-02-28T07:36:53;101769.80;;;9.80
70533;BMP180;58088;51.186;17.130;2023-02-28T07:39:21;101771.20;;;9.80
70533;BMP180;58088;51.186;17.130;2023-02-28T07:41:49;101767.80;;;9.90
70533;BMP180;58088;51.186;17.130;2023-02-28T07:44:16;101771.00;;;9.80
70533;BMP180;58088;51.186;17.130;2023-02-28T07:46:42;101772.40;;;9.80
70533;BMP180;58088;51.186;17.130;2023-02-28T07:49:08;101773.00;;;9.90
70533;BMP180;58088;51.186;17.130;2023-02-28T07:51:34;101775.60;;;9.92
70533;BMP180;58088;51.186;17.130;2023-02-28T07:54:01;101778.40;;;9.92
70533;BMP180;58088;51.186;17.130;2023-02-28T07:56:27;101774.20;;;9.80
70533;BMP180;58088;51.186;17.130;2023-02-28T07:58:53;101771.80;;;9.90
70533;BMP180;58088;51.186;17.130;2023-02-28T08:01:19;101775.40;;;9.90
70533;BMP180;58088;51.186;17.130;2023-02-28T08:03:46;101775.20;;;9.82
70533;BMP180;58088;51.186;17.130;2023-02-28T08:06:21;101770.60;;;9.70
70533;BMP180;58088;51.186;17.130;2023-02-28T08:08:49;101767.80;;;9.80
70533;BMP180;58088;51.186;17.130;2023-02-28T08:11:17;101771.80;;;9.80
70533;BMP180;58088;51.186;17.130;2023-02-28T08:13:45;101773.20;;;9.90
70533;BMP180;58088;51.186;17.130;2023-02-28T08:16:13;101764.40;;;10.10
70533;BMP180;58088;51.186;17.130;2023-02-28T08:18:52;101770.00;;;10.10
70533;BMP180;58088;51.186;17.130;2023-02-28T08:21:21;101770.20;;;10.00
70533;BMP180;58088;51.186;17.130;2023-02-28T08:23:49;101762.20;;;10.00
70533;BMP180;58088;51.186;17.130;2023-02-28T08:26:17;101763.80;;;9.94
70533;BMP180;58088;51.186;17.130;2023-02-28T08:28:44;101762.40;;;10.00
70533;BMP180;58088;51.186;17.130;2023-02-28T08:31:14;101767.00;;;10.00
70533;BMP180;58088;51.186;17.130;2023-02-28T08:33:42;101763.20;;;9.90
70533;BMP180;58088;51.186;17.130;2023-02-28T08:36:09;101767.00;;;9.80
70533;BMP180;58088;51.186;17.130;2023-02-28T08:38:36;101770.40;;;9.80
70533;BMP180;58088;51.186;17.130;2023-02-28T08:41:07;101767.40;;;9.80
70533;BMP180;58088;51.186;17.130;2023-02-28T08:43:36;101765.60;;;9.90
70533;BMP180;58088;51.186;17.130;2023-02-28T08:46:03;101770.60;;;9.90
70533;BMP180;58088;51.186;17.130;2023-02-28T08:48:33;101769.40;;;9.90
70533;BMP180;58088;51.186;17.130;2023-02-28T08:51:08;101771.60;;;9.90
70533;BMP180;58088;51.186;17.130;2023-02-28T08:53:37;101772.60;;;9.80
70533;BMP180;58088;51.186;17.130;2023-02-28T08:56:11;101770.80;;;9.82
70533;BMP180;58088;51.186;17.130;2023-02-28T08:58:39;101772.00;;;9.90
70533;BMP180;58088;51.186;17.130;2023-02-28T09:01:22;101773.00;;;9.90
70533;BMP180;58088;51.186;17.130;2023-02-28T09:03:50;101771.80;;;10.00
70533;BMP180;58088;51.186;17.130;2023-02-28T09:06:19;101767.60;;;10.00
70533;BMP180;58088;51.186;17.130;2023-02-28T09:08:45;101769.40;;;10.00
70533;BMP180;58088;51.186;17.130;2023-02-28T09:11:12;101769.00;;;10.04
70533;BMP180;58088;51.186;17.130;2023-02-28T09:13:39;101763.40;;;10.10
70533;BMP180;58088;51.186;17.130;2023-02-28T09:16:11;101768.20;;;9.90
70533;BMP180;58088;51.186;17.130;2023-02-28T09:18:39;101770.00;;;9.70
70533;BMP180;58088;51.186;17.130;2023-02-28T09:21:09;101766.00;;;9.40
70533;BMP180;58088;51.186;17.130;2023-02-28T09:23:35;101766.40;;;9.32
70533;BMP180;58088;51.186;17.130;2023-02-28T09:26:04;101766.80;;;9.40
70533;BMP180;58088;51.186;17.130;2023-02-28T09:28:31;101765.20;;;9.30
70533;BMP180;58088;51.186;17.130;2023-02-28T09:30:58;101758.40;;;9.40
70533;BMP180;58088;51.186;17.130;2023-02-28T09:33:25;101757.60;;;9.42
70533;BMP180;58088;51.186;17.130;2023-02-28T09:35:59;101755.60;;;9.50
70533;BMP180;58088;51.186;17.130;2023-02-28T09:38:26;101754.40;;;9.42
70533;BMP180;58088;51.186;17.130;2023-02-28T09:41:02;101758.80;;;9.28
70533;BMP180;58088;51.186;17.130;2023-02-28T09:43:35;101759.20;;;9.20
70533;BMP180;58088;51.186;17.130;2023-02-28T09:46:27;101760.60;;;9.10
70533;BMP180;58088;51.186;17.130;2023-02-28T09:48:56;101761.00;;;8.90
70533;BMP180;58088;51.186;17.130;2023-02-28T09:51:43;101761.40;;;8.80
70533;BMP180;58088;51.186;17.130;2023-02-28T09:54:17;101753.00;;;8.80
70533;BMP180;58088;51.186;17.130;2023-02-28T09:56:50;101759.60;;;8.80
70533;BMP180;58088;51.186;17.130;2023-02-28T09:59:35;101759.20;;;8.80
70533;BMP180;58088;51.186;17.130;2023-02-28T10:05:14;101757.40;;;8.90
70533;BMP180;58088;51.186;17.130;2023-02-28T10:08:14;101766.00;;;8.84
70533;BMP180;58088;51.186;17.130;2023-02-28T10:10:51;101764.20;;;8.90
70533;BMP180;58088;51.186;17.130;2023-02-28T10:13:36;101764.00;;;9.00
70533;BMP180;58088;51.186;17.130;2023-02-28T10:16:12;101764.80;;;9.00
70533;BMP180;58088;51.186;17.130;2023-02-28T10:18:54;101766.80;;;9.00
70533;BMP180;58088;51.186;17.130;2023-02-28T10:21:34;101762.80;;;8.90
70533;BMP180;58088;51.186;17.130;2023-02-28T10:24:38;101760.00;;;8.80
70533;BMP180;58088;51.186;17.130;2023-02-28T10:27:14;101758.20;;;8.80
70533;BMP180;58088;51.186;17.130;2023-02-28T10:29:48;101761.60;;;8.94
70533;BMP180;58088;51.186;17.130;2023-02-28T10:32:24;101755.80;;;8.90
70533;BMP180;58088;51.186;17.130;2023-02-28T10:35:44;101754.60;;;8.90
70533;BMP180;58088;51.186;17.130;2023-02-28T10:37:50;101757.40;;;8.90
70533;BMP180;58088;51.186;17.130;2023-02-28T10:42:58;101753.80;;;8.90
70533;BMP180;58088;51.186;17.130;2023-02-28T10:45:28;101757.00;;;9.00
70533;BMP180;58088;51.186;17.130;2023-02-28T10:48:23;101757.00;;;9.00
70533;BMP180;58088;51.186;17.130;2023-02-28T10:50:54;101754.60;;;8.90
70533;BMP180;58088;51.186;17.130;2023-02-28T10:53:27;101761.20;;;8.80
70533;BMP180;58088;51.186;17.130;2023-02-28T10:59:00;101760.80;;;8.60
70533;BMP180;58088;51.186;17.130;2023-02-28T11:01:41;101753.60;;;8.56
70533;BMP180;58088;51.186;17.130;2023-02-28T11:04:31;101752.80;;;8.32
70533;BMP180;58088;51.186;17.130;2023-02-28T11:07:03;101748.60;;;8.30
70533;BMP180;58088;51.186;17.130;2023-02-28T11:09:46;101744.00;;;8.38
70533;BMP180;58088;51.186;17.130;2023-02-28T11:12:35;101741.60;;;8.40
70533;BMP180;58088;51.186;17.130;2023-02-28T11:20:39;101747.00;;;8.10
70533;BMP180;58088;51.186;17.130;2023-02-28T11:23:13;101741.80;;;8.20
70533;BMP180;58088;51.186;17.130;2023-02-28T11:25:40;101731.40;;;8.40
70533;BMP180;58088;51.186;17.130;2023-02-28T11:28:47;101733.00;;;8.50
70533;BMP180;58088;51.186;17.130;2023-02-28T11:33:52;101737.20;;;8.70
70533;BMP180;58088;51.186;17.130;2023-02-28T11:36:31;101733.60;;;8.80
70533;BMP180;58088;51.186;17.130;2023-02-28T11:39:10;101736.40;;;8.70
70533;BMP180;58088;51.186;17.130;2023-02-28T11:41:51;101737.80;;;8.46
70533;BMP180;58088;51.186;17.130;2023-02-28T11:53:56;101735.80;;;8.52
70533;BMP180;58088;51.186;17.130;2023-02-28T11:56:54;101728.20;;;8.36
70533;BMP180;58088;51.186;17.130;2023-02-28T11:59:43;101721.00;;;8.20
70533;BMP180;58088;51.186;17.130;2023-02-28T12:02:35;101724.60;;;8.02
70533;BMP180;58088;51.186;17.130;2023-02-28T12:05:43;101723.60;;;8.00
70533;BMP180;58088;51.186;17.130;2023-02-28T12:14:49;101706.00;;;8.20
70533;BMP180;58088;51.186;17.130;2023-02-28T12:20:34;101692.40;;;8.38
70533;BMP180;58088;51.186;17.130;2023-02-28T12:26:27;101694.20;;;8.40
70533;BMP180;58088;51.186;17.130;2023-02-28T12:29:21;101689.80;;;8.40
70533;BMP180;58088;51.186;17.130;2023-02-28T12:34:39;101686.80;;;8.46
70533;BMP180;58088;51.186;17.130;2023-02-28T12:37:25;101680.20;;;8.40
70533;BMP180;58088;51.186;17.130;2023-02-28T12:40:05;101681.20;;;8.48
70533;BMP180;58088;51.186;17.130;2023-02-28T12:42:45;101679.80;;;8.40
70533;BMP180;58088;51.186;17.130;2023-02-28T12:45:21;101672.40;;;8.40
70533;BMP180;58088;51.186;17.130;2023-02-28T12:47:59;101670.60;;;8.46
70533;BMP180;58088;51.186;17.130;2023-02-28T12:50:27;101670.60;;;8.40
70533;BMP180;58088;51.186;17.130;2023-02-28T12:56:16;101666.20;;;8.40
70533;BMP180;58088;51.186;17.130;2023-02-28T12:58:56;101670.40;;;8.40
70533;BMP180;58088;51.186;17.130;2023-02-28T13:10:10;101661.60;;;8.54
70533;BMP180;58088;51.186;17.130;2023-02-28T13:12:36;101660.40;;;8.50
70533;BMP180;58088;51.186;17.130;2023-02-28T13:15:26;101661.40;;;8.46
70533;BMP180;58088;51.186;17.130;2023-02-28T13:17:59;101661.60;;;8.50
70533;BMP180;58088;51.186;17.130;2023-02-28T13:20:34;101663.40;;;8.50
70533;BMP180;58088;51.186;17.130;2023-02-28T13:23:01;101662.20;;;8.50
70533;BMP180;58088;51.186;17.130;2023-02-28T13:28:02;101660.00;;;8.20
70533;BMP180;58088;51.186;17.130;2023-02-28T13:41:46;101659.20;;;8.20
70533;BMP180;58088;51.186;17.130;2023-02-28T13:44:19;101648.80;;;8.14
70533;BMP180;58088;51.186;17.130;2023-02-28T13:49:29;101648.40;;;8.20
70533;BMP180;58088;51.186;17.130;2023-02-28T13:55:41;101642.20;;;8.30
70533;BMP180;58088;51.186;17.130;2023-02-28T14:04:21;101630.00;;;8.20
70533;BMP180;58088;51.186;17.130;2023-02-28T14:07:03;101628.20;;;8.20
70533;BMP180;58088;51.186;17.130;2023-02-28T14:09:41;101627.60;;;8.20
70533;BMP180;58088;51.186;17.130;2023-02-28T14:12:56;101623.80;;;8.30
70533;BMP180;58088;51.186;17.130;2023-02-28T14:15:47;101627.60;;;8.20
70533;BMP180;58088;51.186;17.130;2023-02-28T14:18:34;101624.40;;;8.20
70533;BMP180;58088;51.186;17.130;2023-02-28T14:21:21;101622.00;;;8.10
70533;BMP180;58088;51.186;17.130;2023-02-28T14:35:50;101618.20;;;7.92
70533;BMP180;58088;51.186;17.130;2023-02-28T14:38:36;101614.40;;;7.96
70533;BMP180;58088;51.186;17.130;2023-02-28T14:41:06;101606.40;;;7.84
70533;BMP180;58088;51.186;17.130;2023-02-28T14:43:56;101603.60;;;7.80
70533;BMP180;58088;51.186;17.130;2023-02-28T14:46:30;101610.40;;;7.86
70533;BMP180;58088;51.186;17.130;2023-02-28T14:48:59;101603.80;;;7.80
70533;BMP180;58088;51.186;17.130;2023-02-28T14:51:25;101609.00;;;7.70
70533;BMP180;58088;51.186;17.130;2023-02-28T14:53:59;101610.80;;;7.70
70533;BMP180;58088;51.186;17.130;2023-02-28T14:56:35;101608.80;;;7.66
70533;BMP180;58088;51.186;17.130;2023-02-28T14:59:04;101612.00;;;7.60
70533;BMP180;58088;51.186;17.130;2023-02-28T15:01:31;101613.60;;;7.60
70533;BMP180;58088;51.186;17.130;2023-02-28T15:04:03;101608.60;;;7.52
70533;BMP180;58088;51.186;17.130;2023-02-28T15:06:32;101614.80;;;7.50
70533;BMP180;58088;51.186;17.130;2023-02-28T15:09:15;101611.80;;;7.40
70533;BMP180;58088;51.186;17.130;2023-02-28T15:11:48;101617.00;;;7.40
70533;BMP180;58088;51.186;17.130;2023-02-28T15:14:20;101610.80;;;7.40
70533;BMP180;58088;51.186;17.130;2023-02-28T15:16:55;101617.60;;;7.30
70533;BMP180;58088;51.186;17.130;2023-02-28T15:19:36;101618.80;;;7.20
70533;BMP180;58088;51.186;17.130;2023-02-28T15:22:12;101619.00;;;7.30
70533;BMP180;58088;51.186;17.130;2023-02-28T15:24:45;101616.40;;;7.20
70533;BMP180;58088;51.186;17.130;2023-02-28T15:27:28;101615.60;;;7.18
70533;BMP180;58088;51.186;17.130;2023-02-28T15:30:00;101622.00;;;7.10
70533;BMP180;58088;51.186;17.130;2023-02-28T15:32:35;101613.00;;;7.10
70533;BMP180;58088;51.186;17.130;2023-02-28T15:35:29;101617.40;;;7.10
70533;BMP180;58088;51.186;17.130;2023-02-28T15:38:24;101610.40;;;7.10
70533;BMP180;58088;51.186;17.130;2023-02-28T15:40:58;101597.60;;;7.00
70533;BMP180;58088;51.186;17.130;2023-02-28T15:43:37;101604.60;;;6.94
70533;BMP180;58088;51.186;17.130;2023-02-28T15:46:10;101604.40;;;6.92
70533;BMP180;58088;51.186;17.130;2023-02-28T15:48:54;101604.80;;;6.90
70533;BMP180;58088;51.186;17.130;2023-02-28T15:51:36;101607.60;;;6.90
70533;BMP180;58088;51.186;17.130;2023-02-28T15:54:10;101607.00;;;6.80
70533;BMP180;58088;51.186;17.130;2023-02-28T15:56:51;101604.60;;;6.80
70533;BMP180;58088;51.186;17.130;2023-02-28T15:59:26;101605.80;;;6.74
70533;BMP180;58088;51.186;17.130;2023-02-28T16:04:37;101607.20;;;6.60
70533;BMP180;58088;51.186;17.130;2023-02-28T16:07:12;101610.40;;;6.50
70533;BMP180;58088;51.186;17.130;2023-02-28T16:09:38;101614.60;;;6.40
70533;BMP180;58088;51.186;17.130;2023-02-28T16:12:05;101617.80;;;6.30
70533;BMP180;58088;51.186;17.130;2023-02-28T16:14:32;101625.80;;;6.22
70533;BMP180;58088;51.186;17.130;2023-02-28T16:17:12;101619.60;;;6.18
70533;BMP180;58088;51.186;17.130;2023-02-28T16:19:44;101623.40;;;6.10
70533;BMP180;58088;51.186;17.130;2023-02-28T16:22:10;101629.00;;;6.00
70533;BMP180;58088;51.186;17.130;2023-02-28T16:24:36;101622.80;;;6.00
70533;BMP180;58088;51.186;17.130;2023-02-28T16:27:05;101623.40;;;5.90
70533;BMP180;58088;51.186;17.130;2023-02-28T16:29:36;101628.00;;;5.90
70533;BMP180;58088;51.186;17.130;2023-02-28T16:32:07;101631.80;;;5.80
70533;BMP180;58088;51.186;17.130;2023-02-28T16:34:34;101625.40;;;5.80